Duncan, Iowa
Current Conditions -  °F | °C
As of 12:15 AM on Thursday 23 Oct 2014 (Local Time) from KFXY Reporting Station
Light Rain Light Rain  
Wind Chill: 52°   Ceiling: 3400
Heat Index: 52°   Visibility: 10mi
Dew Point: 45°   Wind: 7mph
Humidity: 76%   Direction: 160°SSE
Pressure: 30.07"   Gusts: NA
Location:  43.1015°N, 93.7581°W
Report Text: KFXY 230515Z AUTO 16006KT 10SM -RA BKN034 BKN070 BKN100 11/07 A3007 RMK AO2
Loading
Personal Weather Stations






























Interactive Weather Map New forecast layout! Learn more

10-Day Weather Forecast

Advertisements
Track Severe Weather on mobile